createdAt,value
2022-09-01T05:44:22.958Z,15.30
2022-09-01T05:49:26.172Z,15.30
2022-09-01T05:54:29.295Z,15.30
2022-09-01T05:59:32.637Z,15.30
2022-09-01T06:04:35.740Z,15.30
2022-09-01T06:09:43.402Z,15.30
2022-09-01T06:14:47.208Z,15.30
2022-09-01T06:19:49.143Z,15.40
2022-09-01T06:24:58.002Z,15.40
2022-09-01T06:30:14.929Z,15.40
2022-09-01T06:35:18.129Z,15.50
2022-09-01T06:40:20.301Z,15.50
2022-09-01T06:45:52.033Z,15.50
2022-09-01T06:51:27.357Z,15.60
2022-09-01T07:02:49.633Z,15.80
2022-09-01T07:39:51.199Z,16.60
2022-09-01T07:45:28.462Z,16.70
2022-09-01T07:56:52.583Z,17.10
2022-09-01T08:01:59.809Z,17.30
2022-09-01T08:14:48.052Z,17.60
2022-09-01T08:33:37.772Z,18.30
2022-09-01T08:38:40.458Z,18.60
2022-09-01T09:28:48.324Z,20.30
2022-09-01T09:34:32.509Z,20.50
2022-09-01T09:40:10.446Z,20.70
2022-09-01T09:45:41.881Z,20.90
2022-09-01T09:51:28.917Z,21.10
2022-09-01T10:01:59.238Z,21.50
2022-09-01T10:07:01.347Z,21.80
2022-09-01T10:12:06.685Z,22.00
2022-09-01T10:17:43.868Z,22.20
2022-09-01T10:22:48.595Z,22.40
2022-09-01T10:28:03.005Z,22.70
2022-09-01T10:33:11.794Z,23.00
2022-09-01T10:38:24.500Z,23.30
2022-09-01T10:43:49.097Z,23.60
2022-09-01T10:48:56.510Z,23.90
2022-09-01T10:54:05.821Z,24.30
2022-09-01T10:59:45.064Z,24.70
2022-09-01T11:04:58.513Z,25.10
2022-09-01T11:10:32.044Z,25.40
2022-09-01T11:15:39.466Z,25.70
2022-09-01T11:59:05.793Z,27.20
2022-09-01T13:02:04.334Z,27.70
2022-09-01T13:20:02.557Z,27.80
2022-09-01T13:44:21.803Z,28.30
2022-09-01T13:56:03.473Z,28.70
2022-09-01T14:15:17.484Z,28.70
2022-09-01T14:52:11.928Z,28.50
2022-09-01T14:58:17.823Z,28.60
2022-09-01T15:22:54.500Z,28.40
2022-09-01T15:28:24.061Z,28.10
2022-09-01T15:33:35.134Z,27.90
2022-09-01T15:44:34.740Z,27.50
2022-09-01T15:56:32.302Z,27.30
2022-09-01T16:01:43.133Z,27.10
2022-09-01T16:19:33.901Z,26.50
2022-09-01T16:24:44.640Z,26.50
2022-09-01T16:37:19.774Z,26.00
2022-09-01T16:42:57.732Z,25.90
2022-09-01T17:01:54.481Z,25.70
2022-09-01T17:26:44.417Z,25.20
2022-09-01T17:32:56.088Z,25.10
2022-09-01T17:39:03.046Z,25.00
2022-09-01T17:44:56.968Z,24.90
2022-09-01T17:51:05.671Z,24.80
2022-09-01T17:57:12.708Z,24.70
2022-09-01T18:02:54.600Z,24.60
2022-09-01T18:09:01.623Z,24.40
2022-09-01T18:14:40.893Z,24.30
2022-09-01T18:21:10.422Z,24.10
2022-09-01T18:27:07.828Z,24.00
2022-09-01T18:33:35.586Z,23.80
2022-09-01T18:39:44.012Z,23.60
2022-09-01T18:51:54.980Z,23.40
2022-09-01T18:57:41.088Z,23.20
2022-09-01T19:04:10.183Z,23.10
